createdAt,value
2023-01-26T00:01:13.611Z,94288.47
2023-01-26T00:03:40.822Z,94288.31
2023-01-26T00:06:09.499Z,94289.72
2023-01-26T00:08:40.209Z,94289.59
2023-01-26T00:11:08.218Z,94284.41
2023-01-26T00:13:35.401Z,94279.38
2023-01-26T00:16:03.168Z,94279.91
2023-01-26T00:18:30.633Z,94279.09
2023-01-26T00:21:02.102Z,94279.09
2023-01-26T00:23:32.990Z,94271.41
2023-01-26T00:26:00.127Z,94279.50
2023-01-26T00:28:28.309Z,94274.19
2023-01-26T00:31:01.970Z,94251.25
2023-01-26T00:33:29.368Z,94273.19
2023-01-26T00:35:56.089Z,94274.19
2023-01-26T00:38:22.739Z,94271.59
2023-01-26T00:40:49.387Z,94274.81
2023-01-26T00:43:16.347Z,94272.28
2023-01-26T00:45:42.985Z,94273.69
2023-01-26T00:48:09.667Z,94269.88
2023-01-26T00:50:36.324Z,94270.50
2023-01-26T00:53:03.037Z,94276.69
2023-01-26T00:55:32.560Z,94270.94
2023-01-26T00:58:04.078Z,94268.28
2023-01-26T01:00:31.809Z,94263.78
2023-01-26T01:02:59.342Z,94259.78
2023-01-26T01:05:28.255Z,94261.38
2023-01-26T01:07:55.231Z,94259.34
2023-01-26T01:10:22.052Z,94264.59
2023-01-26T01:12:48.764Z,94251.03
2023-01-26T01:15:15.806Z,94254.69
2023-01-26T01:17:42.640Z,94260.88
2023-01-26T01:20:11.364Z,94254.53
2023-01-26T01:22:38.739Z,94250.38
2023-01-26T01:25:05.936Z,94250.69
2023-01-26T01:27:32.616Z,94250.22
2023-01-26T01:29:59.211Z,94252.69
2023-01-26T01:32:25.919Z,94249.97
2023-01-26T01:34:52.605Z,94250.28
2023-01-26T01:37:19.208Z,94248.66
2023-01-26T01:39:45.884Z,94245.47
2023-01-26T01:42:12.921Z,94251.50
2023-01-26T01:44:39.761Z,94247.19
2023-01-26T01:47:23.316Z,94242.06
2023-01-26T01:49:51.331Z,94231.47
2023-01-26T01:52:20.927Z,94243.09
2023-01-26T01:55:08.997Z,94243.91
2023-01-26T01:57:51.766Z,94239.59
2023-01-26T02:00:21.327Z,94242.47
2023-01-26T02:03:11.967Z,94230.66
2023-01-26T02:06:09.127Z,94227.75
2023-01-26T02:08:51.494Z,94233.22
2023-01-26T02:11:21.679Z,94221.72
2023-01-26T02:13:49.501Z,94229.22
2023-01-26T02:16:17.028Z,94229.06
2023-01-26T02:18:44.866Z,94222.38
2023-01-26T02:21:14.475Z,94225.50
2023-01-26T02:24:03.057Z,94222.44
2023-01-26T02:26:32.322Z,94219.00
2023-01-26T02:29:00.400Z,94213.69
2023-01-26T02:31:27.764Z,94213.00
2023-01-26T02:33:54.548Z,94205.94
2023-01-26T02:36:26.698Z,94201.13
2023-01-26T02:39:21.762Z,94200.53
2023-01-26T02:42:08.483Z,94196.03
2023-01-26T02:44:35.332Z,94192.53
2023-01-26T02:47:02.011Z,94183.56
2023-01-26T02:49:47.193Z,94193.63
2023-01-26T02:52:15.085Z,94190.59
2023-01-26T02:55:00.215Z,94192.47
2023-01-26T02:57:27.300Z,94194.31
2023-01-26T02:59:54.048Z,94187.53
2023-01-26T03:02:21.093Z,94185.63
2023-01-26T03:04:47.791Z,94181.31
2023-01-26T03:07:14.537Z,94185.31
2023-01-26T03:09:41.198Z,94168.13
2023-01-26T03:12:08.080Z,94187.88
2023-01-26T03:14:34.827Z,94178.19
2023-01-26T03:17:01.544Z,94175.88
2023-01-26T03:19:46.972Z,94182.59
2023-01-26T03:22:31.932Z,94183.38
2023-01-26T03:25:17.531Z,94178.75
2023-01-26T03:27:46.710Z,94177.41
2023-01-26T03:30:15.209Z,94175.44
2023-01-26T03:32:42.208Z,94172.09
2023-01-26T03:35:15.044Z,94168.59
2023-01-26T03:37:44.624Z,94172.25
2023-01-26T03:40:31.414Z,94176.22
2023-01-26T03:43:16.822Z,94172.34
2023-01-26T03:46:02.305Z,94182.66
2023-01-26T03:48:47.724Z,94179.13
2023-01-26T03:51:33.329Z,94182.59
2023-01-26T03:54:18.995Z,94184.03
2023-01-26T03:56:45.726Z,94186.44
2023-01-26T03:59:15.364Z,94177.28
2023-01-26T04:02:04.902Z,94170.97
2023-01-26T04:04:50.516Z,94167.31
2023-01-26T04:07:36.079Z,94179.69
2023-01-26T04:10:02.793Z,94169.13
2023-01-26T04:12:29.567Z,94166.06
2023-01-26T04:15:14.790Z,94160.97
2023-01-26T04:17:59.776Z,94150.34
2023-01-26T04:20:45.088Z,94164.47
2023-01-26T04:23:21.042Z,94166.38
2023-01-26T04:25:48.709Z,94160.03
2023-01-26T04:28:15.584Z,94162.13
2023-01-26T04:30:42.853Z,94167.88
2023-01-26T04:33:10.465Z,94157.75
2023-01-26T04:35:37.218Z,94158.56
2023-01-26T04:38:03.988Z,94148.47
2023-01-26T04:40:30.760Z,94153.47
2023-01-26T04:42:57.496Z,94155.75
2023-01-26T04:45:24.129Z,94156.75
2023-01-26T04:47:50.998Z,94156.47
2023-01-26T04:50:17.788Z,94143.78
2023-01-26T04:52:44.597Z,94155.06
2023-01-26T04:55:11.302Z,94155.44
2023-01-26T04:57:38.029Z,94153.78
2023-01-26T05:00:05.432Z,94154.13
2023-01-26T05:02:32.355Z,94157.28
2023-01-26T05:04:59.076Z,94153.69
2023-01-26T05:07:25.843Z,94162.13
2023-01-26T05:09:52.586Z,94157.03
2023-01-26T05:12:34.415Z,94143.00
2023-01-26T05:15:01.112Z,94152.22
2023-01-26T05:17:27.775Z,94149.69
2023-01-26T05:19:54.488Z,94143.44
2023-01-26T05:22:21.363Z,94152.25
2023-01-26T05:24:47.969Z,94139.38
2023-01-26T05:27:23.567Z,94147.44
2023-01-26T05:29:51.273Z,94145.03
2023-01-26T05:32:18.407Z,94141.19
2023-01-26T05:34:46.271Z,94131.50
2023-01-26T05:37:14.797Z,94134.84
2023-01-26T05:39:42.240Z,94137.06
2023-01-26T05:42:09.033Z,94139.00
2023-01-26T05:44:35.760Z,94129.69
2023-01-26T05:47:02.436Z,94122.56
2023-01-26T05:49:29.136Z,94136.75
2023-01-26T05:51:55.883Z,94132.09
2023-01-26T05:54:22.637Z,94133.34
2023-01-26T05:56:49.545Z,94121.03
2023-01-26T05:59:16.265Z,94134.56
2023-01-26T06:01:43.044Z,94134.41
2023-01-26T06:04:09.831Z,94142.81
2023-01-26T06:06:36.631Z,94140.25
2023-01-26T06:09:03.600Z,94143.00
2023-01-26T06:11:32.080Z,94134.78
2023-01-26T06:13:58.841Z,94127.81
2023-01-26T06:16:25.611Z,94134.03
2023-01-26T06:18:52.306Z,94119.22
2023-01-26T06:21:19.271Z,94138.06
2023-01-26T06:23:46.009Z,94134.84
2023-01-26T06:26:12.941Z,94134.41
2023-01-26T06:28:39.574Z,94121.97
2023-01-26T06:31:07.927Z,94118.84
2023-01-26T06:33:36.276Z,94134.50
2023-01-26T06:36:10.149Z,94131.72
2023-01-26T06:38:36.992Z,94129.53
2023-01-26T06:41:05.968Z,94128.66
2023-01-26T06:43:34.056Z,94133.69
2023-01-26T06:46:01.596Z,94126.63
2023-01-26T06:48:30.879Z,94128.59
2023-01-26T06:51:00.306Z,94124.97
2023-01-26T06:53:33.095Z,94113.50
2023-01-26T06:55:59.982Z,94130.09
2023-01-26T06:58:26.747Z,94120.22
2023-01-26T07:00:53.591Z,94123.94
2023-01-26T07:03:20.537Z,94121.50
2023-01-26T07:05:47.312Z,94132.28
2023-01-26T07:08:14.029Z,94124.19
2023-01-26T07:10:40.721Z,94126.72
2023-01-26T07:13:08.022Z,94124.03
2023-01-26T07:15:34.963Z,94128.56
2023-01-26T07:18:01.799Z,94125.50
2023-01-26T07:20:28.601Z,94126.59
2023-01-26T07:22:55.606Z,94130.50
2023-01-26T07:25:22.280Z,94129.16
2023-01-26T07:27:49.017Z,94134.91
2023-01-26T07:30:16.138Z,94134.44
2023-01-26T07:32:42.821Z,94132.91
2023-01-26T07:35:09.769Z,94131.03
2023-01-26T07:37:36.555Z,94135.72
2023-01-26T07:40:03.917Z,94128.69
2023-01-26T07:42:31.258Z,94130.16
2023-01-26T07:44:57.981Z,94131.91
2023-01-26T07:47:24.677Z,94132.53
2023-01-26T07:49:51.731Z,94129.34
2023-01-26T07:52:18.509Z,94133.69
2023-01-26T07:54:45.241Z,94117.88
2023-01-26T07:57:12.909Z,94134.19
2023-01-26T07:59:39.759Z,94120.75
2023-01-26T08:02:06.490Z,94133.03
2023-01-26T08:04:33.287Z,94128.47
2023-01-26T08:07:00.203Z,94134.13
2023-01-26T08:09:27.281Z,94128.38
2023-01-26T08:11:57.450Z,94133.94
2023-01-26T08:14:24.717Z,94139.47
2023-01-26T08:16:51.448Z,94132.97
2023-01-26T08:19:18.452Z,94131.09
2023-01-26T08:21:45.211Z,94138.34
2023-01-26T08:24:12.915Z,94132.56
2023-01-26T08:26:39.789Z,94130.69
2023-01-26T08:29:06.753Z,94132.06
2023-01-26T08:31:33.675Z,94134.25
2023-01-26T08:34:00.589Z,94128.97
2023-01-26T08:36:28.683Z,94120.59
2023-01-26T08:38:55.533Z,94127.59
2023-01-26T08:41:22.300Z,94128.63
2023-01-26T08:43:49.163Z,94129.56
2023-01-26T08:46:16.178Z,94123.19
2023-01-26T08:48:43.034Z,94124.75
2023-01-26T08:51:09.890Z,94125.94
2023-01-26T08:53:37.603Z,94132.09
2023-01-26T08:56:06.203Z,94121.16
2023-01-26T08:58:33.921Z,94122.34
2023-01-26T09:01:07.560Z,94125.00
2023-01-26T09:03:34.699Z,94119.69
2023-01-26T09:06:02.359Z,94122.63
2023-01-26T09:08:29.137Z,94125.88
2023-01-26T09:10:56.381Z,94128.16
2023-01-26T09:13:23.367Z,94122.91
2023-01-26T09:15:50.440Z,94120.97
2023-01-26T09:18:18.155Z,94123.50
2023-01-26T09:20:44.937Z,94117.53
2023-01-26T09:23:12.794Z,94129.75
2023-01-26T09:25:39.914Z,94139.59
2023-01-26T09:28:09.002Z,94132.97
2023-01-26T09:30:36.144Z,94134.41
2023-01-26T09:33:04.700Z,94124.19
2023-01-26T09:35:31.711Z,94117.63
2023-01-26T09:37:58.523Z,94133.97
2023-01-26T09:41:01.578Z,94128.28
2023-01-26T09:43:34.272Z,94132.00
2023-01-26T09:46:26.652Z,94134.66
2023-01-26T09:49:01.872Z,94126.06
2023-01-26T09:51:32.435Z,94132.97
2023-01-26T09:54:04.949Z,94123.28
2023-01-26T09:56:35.565Z,94124.97
2023-01-26T09:59:14.001Z,94126.63
2023-01-26T10:02:10.454Z,94124.59
2023-01-26T10:04:39.279Z,94118.28
2023-01-26T10:07:10.033Z,94116.75
2023-01-26T10:09:38.289Z,94114.47
2023-01-26T10:12:08.073Z,94127.81
2023-01-26T10:14:42.663Z,94125.84
2023-01-26T10:17:34.044Z,94125.91
2023-01-26T10:20:08.890Z,94126.50
2023-01-26T10:22:50.911Z,94119.38
2023-01-26T10:25:38.929Z,94116.59
2023-01-26T10:28:17.990Z,94111.63
2023-01-26T10:30:47.921Z,94104.72
2023-01-26T10:33:26.736Z,94112.06
2023-01-26T10:35:53.971Z,94102.59
2023-01-26T10:38:28.704Z,94105.44
2023-01-26T10:40:56.081Z,94096.91
2023-01-26T10:43:24.854Z,94085.38
2023-01-26T10:45:51.656Z,94096.03
2023-01-26T10:48:27.038Z,94089.50
2023-01-26T10:50:54.736Z,94089.16
2023-01-26T10:53:25.718Z,94091.03
2023-01-26T10:56:24.881Z,94089.75
2023-01-26T10:58:58.220Z,94086.25
2023-01-26T11:01:27.881Z,94078.56
2023-01-26T11:04:12.584Z,94074.25
2023-01-26T11:06:39.664Z,94083.25
2023-01-26T11:09:29.661Z,94073.44
2023-01-26T11:11:59.039Z,94072.03
2023-01-26T11:14:25.914Z,94071.53
2023-01-26T11:17:06.149Z,94079.75
2023-01-26T11:19:39.070Z,94066.56
2023-01-26T11:22:08.349Z,94070.41
2023-01-26T11:24:45.360Z,94065.97
2023-01-26T11:27:35.400Z,94055.97
2023-01-26T11:30:35.762Z,94050.63
2023-01-26T11:33:29.498Z,94036.84
2023-01-26T11:36:22.944Z,94038.19
2023-01-26T11:39:09.692Z,94041.38
2023-01-26T11:41:48.032Z,94039.97
2023-01-26T11:44:39.364Z,94028.53
2023-01-26T11:47:06.086Z,94022.22
2023-01-26T11:49:56.084Z,94020.59
2023-01-26T11:52:34.987Z,94023.22
2023-01-26T11:55:07.735Z,94017.72
2023-01-26T11:57:37.592Z,94013.91
2023-01-26T12:00:28.601Z,94012.63
2023-01-26T12:03:02.925Z,94007.66
2023-01-26T12:05:35.211Z,94003.03
2023-01-26T12:08:27.989Z,93997.50
2023-01-26T12:10:54.653Z,93993.81
2023-01-26T12:13:38.997Z,93989.00
2023-01-26T12:16:14.209Z,93987.31
2023-01-26T12:18:58.855Z,93988.28
2023-01-26T12:21:34.648Z,93978.38
2023-01-26T12:24:03.384Z,93982.88
2023-01-26T12:26:35.682Z,93974.00
2023-01-26T12:29:09.420Z,93971.19
2023-01-26T12:31:43.852Z,93967.81
2023-01-26T12:34:12.371Z,93975.25
2023-01-26T12:37:20.812Z,93973.66
2023-01-26T12:40:18.123Z,93978.97
2023-01-26T12:42:49.951Z,93973.84
2023-01-26T12:45:23.750Z,93978.84
2023-01-26T12:48:06.989Z,93982.91
2023-01-26T12:50:43.715Z,93982.66
2023-01-26T12:53:20.324Z,93978.16
2023-01-26T12:56:10.323Z,93976.03
2023-01-26T12:58:44.523Z,93970.06
2023-01-26T13:01:16.816Z,93974.50
2023-01-26T13:03:44.303Z,93971.31
2023-01-26T13:06:10.976Z,93975.47
2023-01-26T13:08:37.647Z,93967.19
2023-01-26T13:11:06.868Z,93974.16
2023-01-26T13:13:55.323Z,93971.56
2023-01-26T13:16:32.218Z,93969.28
2023-01-26T13:19:00.511Z,93964.00
2023-01-26T13:21:39.555Z,93965.88
2023-01-26T13:24:18.495Z,93959.88
2023-01-26T13:26:58.820Z,93962.22
2023-01-26T13:29:25.581Z,93966.88
2023-01-26T13:31:54.927Z,93962.56
2023-01-26T13:34:43.510Z,93964.47
2023-01-26T13:37:17.813Z,93963.81
2023-01-26T13:39:47.522Z,93975.16
2023-01-26T13:43:06.092Z,93973.16
2023-01-26T13:45:40.582Z,93969.63
2023-01-26T13:48:15.350Z,93969.72
2023-01-26T13:50:42.901Z,93980.50
2023-01-26T13:53:41.620Z,93965.41
2023-01-26T13:56:33.162Z,93975.06
2023-01-26T13:59:23.117Z,93971.47
2023-01-26T14:01:52.060Z,93971.66
2023-01-26T14:04:23.858Z,93952.50
2023-01-26T14:06:56.504Z,93982.47
2023-01-26T14:09:23.652Z,93983.78
2023-01-26T14:11:57.114Z,93984.06
2023-01-26T14:14:27.940Z,93990.91
2023-01-26T14:16:57.903Z,93987.75
2023-01-26T14:19:24.991Z,93983.59
2023-01-26T14:21:57.281Z,93987.91
2023-01-26T14:24:30.112Z,93993.97
2023-01-26T14:26:56.986Z,93991.13
2023-01-26T14:29:26.570Z,93992.38
2023-01-26T14:31:56.413Z,94002.56
2023-01-26T14:34:25.803Z,94007.97
2023-01-26T14:37:14.067Z,94004.31
2023-01-26T14:39:42.934Z,94008.50
2023-01-26T14:42:14.508Z,94012.66
2023-01-26T14:44:41.525Z,94014.34
2023-01-26T14:47:21.398Z,94008.28
2023-01-26T14:49:53.196Z,94007.78
2023-01-26T14:52:26.179Z,94011.16
2023-01-26T14:54:54.779Z,94001.47
2023-01-26T14:57:24.311Z,93998.25
2023-01-26T14:59:54.323Z,94006.72
2023-01-26T15:02:26.447Z,94001.28
2023-01-26T15:05:04.032Z,94000.06
2023-01-26T15:07:39.028Z,94005.75
2023-01-26T15:10:35.676Z,93999.84
2023-01-26T15:13:11.588Z,94007.97
2023-01-26T15:15:40.628Z,94011.16
2023-01-26T15:18:13.129Z,94015.00
2023-01-26T15:20:45.521Z,94007.38
2023-01-26T15:23:38.302Z,94000.66
2023-01-26T15:26:10.371Z,94001.19
2023-01-26T15:28:38.735Z,94004.28
2023-01-26T15:31:06.212Z,93998.09
2023-01-26T15:33:53.428Z,93993.59
2023-01-26T15:36:23.198Z,94000.66
2023-01-26T15:38:50.247Z,93989.94
2023-01-26T15:41:17.117Z,93995.22
2023-01-26T15:43:43.883Z,93996.78
2023-01-26T15:46:10.737Z,94002.69
2023-01-26T15:48:37.814Z,94009.19
2023-01-26T15:51:09.066Z,94010.78
2023-01-26T15:53:35.875Z,94012.19
2023-01-26T15:56:02.554Z,94012.91
2023-01-26T15:58:31.675Z,94010.72
2023-01-26T16:00:58.600Z,94000.75
2023-01-26T16:03:25.455Z,94003.50
2023-01-26T16:05:52.265Z,93997.69
2023-01-26T16:08:19.726Z,93993.22
2023-01-26T16:10:47.425Z,94000.38
2023-01-26T16:13:18.104Z,93997.66
2023-01-26T16:15:46.648Z,94000.88
2023-01-26T16:18:13.641Z,94001.03
2023-01-26T16:20:42.199Z,93999.59
2023-01-26T16:23:20.687Z,93995.41
2023-01-26T16:25:48.261Z,93992.88
2023-01-26T16:28:15.476Z,94000.88
2023-01-26T16:30:43.965Z,94000.56
2023-01-26T16:33:15.646Z,94000.72
2023-01-26T16:35:43.091Z,94012.47
2023-01-26T16:38:13.318Z,94002.63
2023-01-26T16:40:41.904Z,93997.38
2023-01-26T16:43:21.414Z,94000.25
2023-01-26T16:45:49.488Z,94004.41
2023-01-26T16:48:16.680Z,94000.09
2023-01-26T16:50:44.282Z,93999.66
2023-01-26T16:53:26.823Z,93998.19
2023-01-26T16:55:54.072Z,94004.06
2023-01-26T16:58:21.938Z,93997.22
2023-01-26T17:00:49.451Z,94006.66
2023-01-26T17:03:16.280Z,94011.25
2023-01-26T17:05:43.396Z,94009.00
2023-01-26T17:08:10.520Z,94009.41
2023-01-26T17:10:40.110Z,94011.31
2023-01-26T17:13:13.779Z,94011.00
2023-01-26T17:15:40.523Z,94011.94
2023-01-26T17:18:08.389Z,94014.81
2023-01-26T17:20:35.101Z,94014.34
2023-01-26T17:23:01.810Z,94009.91
2023-01-26T17:25:28.538Z,94007.22
2023-01-26T17:27:55.232Z,94015.50
2023-01-26T17:30:22.312Z,94015.94
2023-01-26T17:32:49.086Z,94008.09
2023-01-26T17:35:15.884Z,94009.91
2023-01-26T17:37:42.658Z,94004.53
2023-01-26T17:40:10.470Z,94006.91
2023-01-26T17:42:37.370Z,94013.63
2023-01-26T17:45:04.560Z,94003.72
2023-01-26T17:47:34.733Z,94010.34
2023-01-26T17:50:01.848Z,94008.09
2023-01-26T17:52:28.564Z,93997.75
2023-01-26T17:54:55.432Z,94004.13
2023-01-26T17:57:22.122Z,93997.63
2023-01-26T17:59:48.937Z,93999.06
2023-01-26T18:02:15.784Z,93999.34
2023-01-26T18:04:42.579Z,93999.19
2023-01-26T18:07:09.440Z,93991.56
2023-01-26T18:09:36.233Z,93983.34
2023-01-26T18:12:03.072Z,93992.56
2023-01-26T18:14:30.162Z,93989.81
2023-01-26T18:16:56.894Z,93995.38
2023-01-26T18:19:23.706Z,93993.38
2023-01-26T18:21:51.231Z,93992.78
2023-01-26T18:24:18.110Z,93994.56
2023-01-26T18:26:45.200Z,93993.94
2023-01-26T18:29:12.207Z,93997.25
2023-01-26T18:31:43.587Z,94001.22
2023-01-26T18:34:11.129Z,94013.41
2023-01-26T18:36:37.868Z,94003.41
2023-01-26T18:39:10.594Z,94000.13
2023-01-26T18:41:40.393Z,93994.72
2023-01-26T18:44:08.391Z,93999.34
2023-01-26T18:46:35.187Z,94008.00
2023-01-26T18:49:03.694Z,93999.72
2023-01-26T18:51:32.849Z,93998.97
2023-01-26T18:54:00.036Z,94004.22
2023-01-26T18:56:27.297Z,94002.63
2023-01-26T18:58:54.351Z,94001.66
2023-01-26T19:01:21.891Z,94006.31
2023-01-26T19:03:55.253Z,94010.63
2023-01-26T19:06:24.058Z,94004.44
2023-01-26T19:08:58.586Z,94000.13
2023-01-26T19:11:37.352Z,94004.13
2023-01-26T19:14:05.454Z,94004.44
2023-01-26T19:16:32.747Z,93992.44
2023-01-26T19:18:59.966Z,94001.22
2023-01-26T19:21:27.736Z,94006.81
2023-01-26T19:23:56.230Z,94001.03
2023-01-26T19:26:25.827Z,93999.13
2023-01-26T19:28:54.338Z,94003.56
2023-01-26T19:31:22.446Z,93995.94
2023-01-26T19:33:50.665Z,94005.53
2023-01-26T19:36:17.622Z,93991.59
2023-01-26T19:38:44.379Z,94001.53
2023-01-26T19:41:11.455Z,93999.63
2023-01-26T19:43:38.439Z,93987.47
2023-01-26T19:46:05.797Z,93988.72
2023-01-26T19:48:32.632Z,93988.53
2023-01-26T19:51:01.425Z,93997.28
2023-01-26T19:53:28.321Z,93992.06
2023-01-26T19:55:55.278Z,93981.22
2023-01-26T19:58:22.126Z,93981.22
2023-01-26T20:00:48.829Z,93986.94
2023-01-26T20:03:15.629Z,93986.16
2023-01-26T20:05:42.344Z,93983.44
2023-01-26T20:08:09.012Z,93992.03
2023-01-26T20:10:35.743Z,93979.34
2023-01-26T20:13:02.615Z,93978.75
2023-01-26T20:15:29.758Z,93980.06
2023-01-26T20:17:57.400Z,93975.59
2023-01-26T20:20:24.681Z,93975.75
2023-01-26T20:22:51.543Z,93982.31
2023-01-26T20:25:18.414Z,93972.59
2023-01-26T20:27:45.592Z,93978.66
2023-01-26T20:30:13.033Z,93974.66
2023-01-26T20:32:40.003Z,93975.31
2023-01-26T20:35:08.757Z,93969.22
2023-01-26T20:37:36.967Z,93968.56
2023-01-26T20:40:04.999Z,93976.31
2023-01-26T20:42:31.965Z,93973.78
2023-01-26T20:44:59.284Z,93970.75
2023-01-26T20:47:26.360Z,93971.03
2023-01-26T20:49:56.114Z,93972.72
2023-01-26T20:52:24.240Z,93953.84
2023-01-26T20:54:52.399Z,93974.44
2023-01-26T20:57:19.272Z,93972.09
2023-01-26T20:59:46.277Z,93969.56
2023-01-26T21:02:14.772Z,93965.75
2023-01-26T21:04:42.281Z,93971.16
2023-01-26T21:07:09.885Z,93971.16
2023-01-26T21:09:37.129Z,93962.56
2023-01-26T21:12:04.198Z,93966.66
2023-01-26T21:14:31.321Z,93964.78
2023-01-26T21:16:58.865Z,93960.47
2023-01-26T21:19:25.893Z,93960.47
2023-01-26T21:21:52.721Z,93960.31
2023-01-26T21:24:19.538Z,93961.91
2023-01-26T21:26:48.032Z,93958.06
2023-01-26T21:29:16.268Z,93953.94
2023-01-26T21:31:46.080Z,93953.56
2023-01-26T21:34:12.986Z,93955.81
2023-01-26T21:36:39.833Z,93951.53
2023-01-26T21:39:10.840Z,93953.28
2023-01-26T21:41:56.010Z,93955.69
2023-01-26T21:44:23.869Z,93943.75
2023-01-26T21:46:53.543Z,93951.81
2023-01-26T21:49:20.979Z,93944.03
2023-01-26T21:52:06.449Z,93941.63
2023-01-26T21:54:33.845Z,93941.78
2023-01-26T21:57:01.630Z,93939.22
2023-01-26T21:59:29.647Z,93929.69
2023-01-26T22:01:58.042Z,93926.19
2023-01-26T22:04:28.152Z,93939.25
2023-01-26T22:06:56.055Z,93937.94
2023-01-26T22:09:23.974Z,93932.53
2023-01-26T22:11:51.426Z,93927.44
2023-01-26T22:14:20.976Z,93918.84
2023-01-26T22:16:48.165Z,93925.03
2023-01-26T22:19:15.122Z,93914.84
2023-01-26T22:21:41.916Z,93919.22
2023-01-26T22:24:11.741Z,93916.16
2023-01-26T22:26:39.322Z,93922.34
2023-01-26T22:29:06.323Z,93920.44
2023-01-26T22:31:33.741Z,93915.34
2023-01-26T22:34:00.968Z,93921.38
2023-01-26T22:36:28.107Z,93918.63
2023-01-26T22:38:54.849Z,93924.16
2023-01-26T22:41:23.744Z,93920.03
2023-01-26T22:43:52.389Z,93925.03
2023-01-26T22:46:20.627Z,93928.66
2023-01-26T22:48:47.322Z,93926.13
2023-01-26T22:51:18.331Z,93927.28
2023-01-26T22:53:45.335Z,93928.06
2023-01-26T22:56:12.481Z,93928.59
2023-01-26T22:58:56.545Z,93926.03
2023-01-26T23:01:26.102Z,93929.47
2023-01-26T23:03:54.429Z,93928.28
2023-01-26T23:06:21.519Z,93933.38
2023-01-26T23:08:48.343Z,93927.34
2023-01-26T23:11:22.491Z,93927.34
2023-01-26T23:13:50.312Z,93928.94
2023-01-26T23:16:17.460Z,93917.75
2023-01-26T23:18:44.367Z,93912.66
2023-01-26T23:21:11.451Z,93919.22
2023-01-26T23:23:39.384Z,93917.00
2023-01-26T23:26:06.589Z,93908.88
2023-01-26T23:28:35.218Z,93919.34
2023-01-26T23:31:02.817Z,93918.84
2023-01-26T23:33:31.116Z,93913.97
2023-01-26T23:35:57.821Z,93916.94
2023-01-26T23:38:26.464Z,93920.09
2023-01-26T23:40:53.206Z,93917.38
2023-01-26T23:43:20.106Z,93918.44
2023-01-26T23:45:48.466Z,93912.25
2023-01-26T23:48:15.859Z,93914.75
2023-01-26T23:50:42.461Z,93912.56
2023-01-26T23:53:09.119Z,93910.16
2023-01-26T23:55:36.259Z,93917.50
2023-01-26T23:58:02.962Z,93908.63
